Archimidis — D5CN5 — position and weather

sailwx.info

Track history (hours):
 
Tides and Currents Weather Stations Pressure Air Temp Water Temp Dewpoint Dewpoint Depression Visibility Wind Speed Wind Dir Waves Ship Positions

Archimidis

Last reported at 2017-Nov-14 09:15 UTC. Time now 2017-Nov-20 04:11 UTC.
Position N 37°34' W 123°13'.

Length 318 m; draft 10 m.

Type: Other ship. MMSI: 636015743.

Date/timePositionNaut miles runAvg speedWind from/ knotsBaromVisibWave heightAir tempDewpointWater temp
2017-Nov-14 09:15N 37°34' W 123°13'3 9.8
2017-Nov-14 08:59N 37°34' W 123°10'5 9.9
2017-Nov-14 08:30N 37°34' W 123°04'510.3
2017-Nov-14 08:00N 37°37' W 122°58'510.7
2017-Nov-14 07:30N 37°40' W 122°53'510.7
2017-Nov-14 07:00N 37°43' W 122°47'510.7
2017-Nov-14 06:30N 37°46' W 122°41'612.8
2017-Nov-14 06:00N 37°47' W 122°34'815.3
2017-Nov-14 05:30N 37°50' W 122°25'510.0
2017-Nov-14 05:00N 37°48' W 122°19'1 2.6
2017-Nov-14 04:30N 37°48' W 122°17'1 2.3
2017-Nov-14 03:58N 37°48' W 122°19'0 0.0
2017-Nov-14 03:28N 37°48' W 122°19'0 0.0
2017-Nov-14 02:58N 37°48' W 122°19'0 0.0
2017-Nov-14 02:28N 37°48' W 122°19'0 0.0
2017-Nov-14 01:58N 37°48' W 122°19'0 0.0
2017-Nov-14 01:28N 37°48' W 122°19'0 0.0
2017-Nov-14 00:58N 37°48' W 122°19'0 0.0
2017-Nov-14 00:28N 37°48' W 122°19'0 0.0
2017-Nov-13 23:58N 37°48' W 122°19'0 0.0
2017-Nov-13 23:28N 37°48' W 122°19'0 0.0
2017-Nov-13 22:58N 37°48' W 122°19'0 0.0
2017-Nov-13 22:28N 37°48' W 122°19'0 0.0
2017-Nov-13 21:58N 37°48' W 122°19'0 0.0
2017-Nov-13 01:59N 37°48' W 122°19'0 1.0
2017-Nov-13 01:31N 37°48' W 122°20'0 0.8
2017-Nov-13 01:00N 37°48' W 122°20'5 9.3
2017-Nov-13 00:31N 37°49' W 122°26'510.3
2017-Nov-13 00:01N 37°48' W 122°32'714.5
2017-Nov-12 23:31N 37°45' W 122°41'510.5
2017-Nov-12 23:00N 37°40' W 122°40'510.4
2017-Nov-12 22:31N 37°35' W 122°40'510.1
2017-Nov-12 22:01N 37°30' W 122°40'510.2
2017-Nov-12 21:30N 37°24' W 122°39'5 9.9
2017-Nov-12 21:00N 37°20' W 122°39'4 7.6
2017-Nov-12 20:30N 37°16' W 122°39'0 0.2
2017-Nov-12 20:00N 37°16' W 122°39'1 0.6
2017-Nov-12 17:36N 37°14' W 122°40'0 0.5
2017-Nov-12 17:30N 37°14' W 122°40'3 1.9
2017-Nov-12 15:59N 37°17' W 122°39'1 1.1
2017-Nov-12 15:17N 37°16' W 122°40'0 0.7
2017-Nov-12 14:59N 37°16' W 122°40'0 0.6
2017-Nov-12 14:29N 37°16' W 122°40'0 0.7
2017-Nov-12 13:59N 37°16' W 122°40'0 0.7
2017-Nov-12 13:29N 37°16' W 122°41'0 0.3
2017-Nov-12 12:59N 37°16' W 122°41'0 0.2
2017-Nov-12 12:26N 37°15' W 122°41'0 0.1
2017-Nov-12 11:59N 37°15' W 122°41'0 0.2
2017-Nov-12 11:29N 37°15' W 122°41'0 0.3
2017-Nov-12 10:59N 37°15' W 122°41'0 0.2
2017-Nov-12 10:29N 37°15' W 122°41'0 0.2
2017-Nov-12 09:59N 37°15' W 122°41'0 0.1
2017-Nov-12 09:29N 37°15' W 122°41'0 0.0
2017-Nov-12 08:59N 37°15' W 122°41'0 0.3
2017-Nov-12 08:29N 37°15' W 122°41'1 1.2
2017-Nov-12 07:59N 37°14' W 122°40'3 6.1
2017-Nov-12 07:30N 37°12' W 122°39'713.1
2017-Nov-12 07:01N 37°05' W 122°36'713.3
2017-Nov-12 06:31N 36°59' W 122°34'713.0
2017-Nov-12 06:00N 36°53' W 122°32'612.8
2017-Nov-12 05:30N 36°46' W 122°30'612.6
2017-Nov-12 05:00N 36°41' W 122°27'612.2
2017-Nov-12 04:30N 36°35' W 122°23'612.2
2017-Nov-12 04:00N 36°30' W 122°20'612.5
2017-Nov-12 03:30N 36°24' W 122°16'612.8
2017-Nov-12 03:00N 36°19' W 122°13'612.9
2017-Nov-12 02:30N 36°13' W 122°09'713.2
2017-Nov-12 02:00N 36°07' W 122°05'713.1
2017-Nov-12 01:30N 36°02' W 122°01'713.1
2017-Nov-12 01:00N 35°56' W 121°57'613.0
2017-Nov-12 00:30N 35°51' W 121°52'612.9
2017-Nov-12 00:00N 35°45' W 121°48'612.9
2017-Nov-11 23:30N 35°39' W 121°44'613.0
2017-Nov-11 23:00N 35°34' W 121°40'713.0
2017-Nov-11 22:30N 35°28' W 121°36'613.1
2017-Nov-11 22:00N 35°23' W 121°32'613.0
2017-Nov-11 21:30N 35°17' W 121°28'713.4
2017-Nov-11 21:00N 35°11' W 121°24'713.7
2017-Nov-11 20:30N 35°05' W 121°20'4 8.6
2017-Nov-11 20:00N 35°01' W 121°17'4 8.0
2017-Nov-11 19:30N 34°58' W 121°15'2 3.4
2017-Nov-11 19:00N 34°57' W 121°14'3 5.4
2017-Nov-11 18:30N 34°54' W 121°12'713.5
2017-Nov-11 18:00N 34°48' W 121°08'713.3
2017-Nov-11 17:30N 34°43' W 121°04'612.7
2017-Nov-11 17:00N 34°37' W 120°60'712.9
2017-Nov-11 16:29N 34°32' W 120°55'612.8
2017-Nov-11 16:01N 34°27' W 120°51'712.7
2017-Nov-11 15:29N 34°24' W 120°43'613.0
2017-Nov-11 15:00N 34°23' W 120°36'713.0
2017-Nov-11 14:30N 34°21' W 120°28'713.3
2017-Nov-11 14:00N 34°19' W 120°21'713.3
2017-Nov-11 13:30N 34°17' W 120°13'713.7
2017-Nov-11 13:00N 34°15' W 120°05'713.6
2017-Nov-11 12:29N 34°14' W 119°57'713.3
2017-Nov-11 11:59N 34°12' W 119°49'713.6
2017-Nov-11 11:28N 34°10' W 119°41'913.7
2017-Nov-11 10:51N 34°08' W 119°31'513.7
2017-Nov-11 10:29N 34°07' W 119°25'713.4
2017-Nov-11 10:00N 34°05' W 119°18'713.5
2017-Nov-11 09:28N 34°02' W 119°10'613.4
2017-Nov-11 08:59N 33°59' W 119°03'612.5
2017-Nov-11 08:28N 33°55' W 118°56'612.1
2017-Nov-11 08:00N 33°52' W 118°51'611.7
2017-Nov-11 07:30N 33°50' W 118°44'611.7
2017-Nov-11 07:00N 33°47' W 118°38'611.6
2017-Nov-11 06:30N 33°44' W 118°32'611.6
2017-Nov-11 06:00N 33°41' W 118°26'510.7
2017-Nov-11 05:30N 33°39' W 118°20'5 9.3
2017-Nov-11 05:00N 33°40' W 118°15'  
2017-Nov-08 12:25N 33°45' W 118°17'0 0.0
2017-Nov-08 11:49N 33°45' W 118°17'0 0.0
2017-Nov-08 11:25N 33°45' W 118°17'0 0.0
2017-Nov-08 10:37N 33°45' W 118°17'0 0.0
2017-Nov-08 10:25N 33°45' W 118°17'0 0.1
2017-Nov-08 09:55N 33°45' W 118°17'0 0.0
2017-Nov-08 09:19N 33°45' W 118°17'0 0.1
2017-Nov-08 08:55N 33°45' W 118°17'0 0.1
2017-Nov-08 08:25N 33°45' W 118°17'0 0.0
2017-Nov-08 07:55N 33°45' W 118°17'0 0.1
2017-Nov-08 07:25N 33°45' W 118°17'0 0.0
2017-Nov-08 06:55N 33°45' W 118°17'0 0.0
2017-Nov-08 01:31N 33°45' W 118°17'0 0.0
2017-Nov-08 01:25N 33°45' W 118°17'0 0.0
2017-Nov-08 00:55N 33°45' W 118°17'0 0.0
2017-Nov-08 00:25N 33°45' W 118°17'0 0.0
2017-Nov-07 22:01N 33°45' W 118°17'0 0.2
2017-Nov-07 21:37N 33°45' W 118°17'0 0.1
2017-Nov-07 21:07N 33°45' W 118°17'0 0.0
2017-Nov-07 20:49N 33°45' W 118°17'0 0.0
2017-Nov-07 20:19N 33°45' W 118°17'0 0.1
2017-Nov-07 19:37N 33°45' W 118°17'0 0.3
2017-Nov-07 19:25N 33°45' W 118°17'0 0.0
2017-Nov-07 17:07N 33°45' W 118°17'2 0.4
2017-Nov-07 13:26N 33°44' W 118°16'3 7.5
2017-Nov-07 12:58N 33°41' W 118°14'2 5.1
2017-Nov-07 12:30N 33°39' W 118°16'4 8.6
2017-Nov-07 12:00N 33°36' W 118°20'611.6
2017-Nov-07 11:30N 33°39' W 118°26'612.0
2017-Nov-07 11:00N 33°42' W 118°33'611.8
2017-Nov-07 10:29N 33°45' W 118°39'611.8
2017-Nov-07 10:00N 33°48' W 118°45'611.8
2017-Nov-07 09:30N 33°51' W 118°51'611.9
2017-Nov-07 09:00N 33°53' W 118°57'611.9
2017-Nov-07 08:30N 33°56' W 119°04'612.8
2017-Nov-07 08:00N 33°60' W 119°10'612.9
2017-Nov-07 07:30N 34°02' W 119°17'712.4
2017-Nov-07 06:57N 34°04' W 119°25'612.4
2017-Nov-07 06:28N 34°06' W 119°32'812.5
2017-Nov-07 05:52N 34°08' W 119°41'512.8
2017-Nov-07 05:29N 34°09' W 119°47'712.8
2017-Nov-07 04:55N 34°11' W 119°55'612.8
2017-Nov-07 04:26N 34°13' W 120°02'612.7
2017-Nov-07 03:58N 34°14' W 120°09'712.9
2017-Nov-07 03:25N 34°16' W 120°17'513.0
2017-Nov-07 03:00N 34°18' W 120°24'612.7
2017-Nov-07 02:30N 34°19' W 120°31'612.6
2017-Nov-07 02:00N 34°18' W 120°39'713.1
2017-Nov-07 01:29N 34°17' W 120°47'613.1
2017-Nov-07 01:00N 34°15' W 120°54'612.9
2017-Nov-07 00:30N 34°13' W 121°02'713.2
2017-Nov-06 23:59N 34°10' W 121°09'713.5
2017-Nov-06 23:30N 34°08' W 121°17'713.5
2017-Nov-06 23:00N 34°06' W 121°24'713.4
2017-Nov-06 22:28N 34°04' W 121°33'613.4
2017-Nov-06 22:00N 34°02' W 121°40'713.3
2017-Nov-06 21:29N 33°59' W 121°47'613.3
2017-Nov-06 21:00N 33°57' W 121°55'713.2
2017-Nov-06 20:30N 33°55' W 122°02'  
Track history (hours):
 
Tides and Currents Weather Stations Pressure Air Temp Water Temp Dewpoint Dewpoint Depression Visibility Wind Speed Wind Dir Waves Ship Positions

Archimidis

Last reported at 2017-Nov-14 09:15 UTC. Time now 2017-Nov-20 04:11 UTC.
Position N 37°34' W 123°13'.

Length 318 m; draft 10 m.

Type: Other ship. MMSI: 636015743.

Date/timePositionNaut miles runAvg speedWind from/ knotsBaromVisibWave heightAir tempDewpointWater temp
2017-Nov-14 09:15N 37°34' W 123°13'3 9.8
2017-Nov-14 08:59N 37°34' W 123°10'5 9.9
2017-Nov-14 08:30N 37°34' W 123°04'510.3
2017-Nov-14 08:00N 37°37' W 122°58'510.7
2017-Nov-14 07:30N 37°40' W 122°53'510.7
2017-Nov-14 07:00N 37°43' W 122°47'510.7
2017-Nov-14 06:30N 37°46' W 122°41'612.8
2017-Nov-14 06:00N 37°47' W 122°34'815.3
2017-Nov-14 05:30N 37°50' W 122°25'510.0
2017-Nov-14 05:00N 37°48' W 122°19'1 2.6
2017-Nov-14 04:30N 37°48' W 122°17'1 2.3
2017-Nov-14 03:58N 37°48' W 122°19'0 0.0
2017-Nov-14 03:28N 37°48' W 122°19'0 0.0
2017-Nov-14 02:58N 37°48' W 122°19'0 0.0
2017-Nov-14 02:28N 37°48' W 122°19'0 0.0
2017-Nov-14 01:58N 37°48' W 122°19'0 0.0
2017-Nov-14 01:28N 37°48' W 122°19'0 0.0
2017-Nov-14 00:58N 37°48' W 122°19'0 0.0
2017-Nov-14 00:28N 37°48' W 122°19'0 0.0
2017-Nov-13 23:58N 37°48' W 122°19'0 0.0
2017-Nov-13 23:28N 37°48' W 122°19'0 0.0
2017-Nov-13 22:58N 37°48' W 122°19'0 0.0
2017-Nov-13 22:28N 37°48' W 122°19'0 0.0
2017-Nov-13 21:58N 37°48' W 122°19'0 0.0
2017-Nov-13 01:59N 37°48' W 122°19'0 1.0
2017-Nov-13 01:31N 37°48' W 122°20'0 0.8
2017-Nov-13 01:00N 37°48' W 122°20'5 9.3
2017-Nov-13 00:31N 37°49' W 122°26'510.3
2017-Nov-13 00:01N 37°48' W 122°32'714.5
2017-Nov-12 23:31N 37°45' W 122°41'510.5
2017-Nov-12 23:00N 37°40' W 122°40'510.4
2017-Nov-12 22:31N 37°35' W 122°40'510.1
2017-Nov-12 22:01N 37°30' W 122°40'510.2
2017-Nov-12 21:30N 37°24' W 122°39'5 9.9
2017-Nov-12 21:00N 37°20' W 122°39'4 7.6
2017-Nov-12 20:30N 37°16' W 122°39'0 0.2
2017-Nov-12 20:00N 37°16' W 122°39'1 0.6
2017-Nov-12 17:36N 37°14' W 122°40'0 0.5
2017-Nov-12 17:30N 37°14' W 122°40'3 1.9
2017-Nov-12 15:59N 37°17' W 122°39'1 1.1
2017-Nov-12 15:17N 37°16' W 122°40'0 0.7
2017-Nov-12 14:59N 37°16' W 122°40'0 0.6
2017-Nov-12 14:29N 37°16' W 122°40'0 0.7
2017-Nov-12 13:59N 37°16' W 122°40'0 0.7
2017-Nov-12 13:29N 37°16' W 122°41'0 0.3
2017-Nov-12 12:59N 37°16' W 122°41'0 0.2
2017-Nov-12 12:26N 37°15' W 122°41'0 0.1
2017-Nov-12 11:59N 37°15' W 122°41'0 0.2
2017-Nov-12 11:29N 37°15' W 122°41'0 0.3
2017-Nov-12 10:59N 37°15' W 122°41'0 0.2
2017-Nov-12 10:29N 37°15' W 122°41'0 0.2
2017-Nov-12 09:59N 37°15' W 122°41'0 0.1
2017-Nov-12 09:29N 37°15' W 122°41'0 0.0
2017-Nov-12 08:59N 37°15' W 122°41'0 0.3
2017-Nov-12 08:29N 37°15' W 122°41'1 1.2
2017-Nov-12 07:59N 37°14' W 122°40'3 6.1
2017-Nov-12 07:30N 37°12' W 122°39'713.1
2017-Nov-12 07:01N 37°05' W 122°36'713.3
2017-Nov-12 06:31N 36°59' W 122°34'713.0
2017-Nov-12 06:00N 36°53' W 122°32'612.8
2017-Nov-12 05:30N 36°46' W 122°30'612.6
2017-Nov-12 05:00N 36°41' W 122°27'612.2
2017-Nov-12 04:30N 36°35' W 122°23'612.2
2017-Nov-12 04:00N 36°30' W 122°20'612.5
2017-Nov-12 03:30N 36°24' W 122°16'612.8
2017-Nov-12 03:00N 36°19' W 122°13'612.9
2017-Nov-12 02:30N 36°13' W 122°09'713.2
2017-Nov-12 02:00N 36°07' W 122°05'713.1
2017-Nov-12 01:30N 36°02' W 122°01'713.1
2017-Nov-12 01:00N 35°56' W 121°57'613.0
2017-Nov-12 00:30N 35°51' W 121°52'612.9
2017-Nov-12 00:00N 35°45' W 121°48'612.9
2017-Nov-11 23:30N 35°39' W 121°44'613.0
2017-Nov-11 23:00N 35°34' W 121°40'713.0
2017-Nov-11 22:30N 35°28' W 121°36'613.1
2017-Nov-11 22:00N 35°23' W 121°32'613.0
2017-Nov-11 21:30N 35°17' W 121°28'713.4
2017-Nov-11 21:00N 35°11' W 121°24'713.7
2017-Nov-11 20:30N 35°05' W 121°20'4 8.6
2017-Nov-11 20:00N 35°01' W 121°17'4 8.0
2017-Nov-11 19:30N 34°58' W 121°15'2 3.4
2017-Nov-11 19:00N 34°57' W 121°14'3 5.4
2017-Nov-11 18:30N 34°54' W 121°12'713.5
2017-Nov-11 18:00N 34°48' W 121°08'713.3
2017-Nov-11 17:30N 34°43' W 121°04'612.7
2017-Nov-11 17:00N 34°37' W 120°60'712.9
2017-Nov-11 16:29N 34°32' W 120°55'612.8
2017-Nov-11 16:01N 34°27' W 120°51'712.7
2017-Nov-11 15:29N 34°24' W 120°43'613.0
2017-Nov-11 15:00N 34°23' W 120°36'713.0
2017-Nov-11 14:30N 34°21' W 120°28'713.3
2017-Nov-11 14:00N 34°19' W 120°21'713.3
2017-Nov-11 13:30N 34°17' W 120°13'713.7
2017-Nov-11 13:00N 34°15' W 120°05'713.6
2017-Nov-11 12:29N 34°14' W 119°57'713.3
2017-Nov-11 11:59N 34°12' W 119°49'713.6
2017-Nov-11 11:28N 34°10' W 119°41'913.7
2017-Nov-11 10:51N 34°08' W 119°31'513.7
2017-Nov-11 10:29N 34°07' W 119°25'713.4
2017-Nov-11 10:00N 34°05' W 119°18'713.5
2017-Nov-11 09:28N 34°02' W 119°10'613.4
2017-Nov-11 08:59N 33°59' W 119°03'612.5
2017-Nov-11 08:28N 33°55' W 118°56'612.1
2017-Nov-11 08:00N 33°52' W 118°51'611.7
2017-Nov-11 07:30N 33°50' W 118°44'611.7
2017-Nov-11 07:00N 33°47' W 118°38'611.6
2017-Nov-11 06:30N 33°44' W 118°32'611.6
2017-Nov-11 06:00N 33°41' W 118°26'510.7
2017-Nov-11 05:30N 33°39' W 118°20'5 9.3
2017-Nov-11 05:00N 33°40' W 118°15'  
2017-Nov-08 12:25N 33°45' W 118°17'0 0.0
2017-Nov-08 11:49N 33°45' W 118°17'0 0.0
2017-Nov-08 11:25N 33°45' W 118°17'0 0.0
2017-Nov-08 10:37N 33°45' W 118°17'0 0.0
2017-Nov-08 10:25N 33°45' W 118°17'0 0.1
2017-Nov-08 09:55N 33°45' W 118°17'0 0.0
2017-Nov-08 09:19N 33°45' W 118°17'0 0.1
2017-Nov-08 08:55N 33°45' W 118°17'0 0.1
2017-Nov-08 08:25N 33°45' W 118°17'0 0.0
2017-Nov-08 07:55N 33°45' W 118°17'0 0.1
2017-Nov-08 07:25N 33°45' W 118°17'0 0.0
2017-Nov-08 06:55N 33°45' W 118°17'0 0.0
2017-Nov-08 01:31N 33°45' W 118°17'0 0.0
2017-Nov-08 01:25N 33°45' W 118°17'0 0.0
2017-Nov-08 00:55N 33°45' W 118°17'0 0.0
2017-Nov-08 00:25N 33°45' W 118°17'0 0.0
2017-Nov-07 22:01N 33°45' W 118°17'0 0.2
2017-Nov-07 21:37N 33°45' W 118°17'0 0.1
2017-Nov-07 21:07N 33°45' W 118°17'0 0.0
2017-Nov-07 20:49N 33°45' W 118°17'0 0.0
2017-Nov-07 20:19N 33°45' W 118°17'0 0.1
2017-Nov-07 19:37N 33°45' W 118°17'0 0.3
2017-Nov-07 19:25N 33°45' W 118°17'0 0.0
2017-Nov-07 17:07N 33°45' W 118°17'2 0.4
2017-Nov-07 13:26N 33°44' W 118°16'3 7.5
2017-Nov-07 12:58N 33°41' W 118°14'2 5.1
2017-Nov-07 12:30N 33°39' W 118°16'4 8.6
2017-Nov-07 12:00N 33°36' W 118°20'611.6
2017-Nov-07 11:30N 33°39' W 118°26'612.0
2017-Nov-07 11:00N 33°42' W 118°33'611.8
2017-Nov-07 10:29N 33°45' W 118°39'611.8
2017-Nov-07 10:00N 33°48' W 118°45'611.8
2017-Nov-07 09:30N 33°51' W 118°51'611.9
2017-Nov-07 09:00N 33°53' W 118°57'611.9
2017-Nov-07 08:30N 33°56' W 119°04'612.8
2017-Nov-07 08:00N 33°60' W 119°10'612.9
2017-Nov-07 07:30N 34°02' W 119°17'712.4
2017-Nov-07 06:57N 34°04' W 119°25'612.4
2017-Nov-07 06:28N 34°06' W 119°32'812.5
2017-Nov-07 05:52N 34°08' W 119°41'512.8
2017-Nov-07 05:29N 34°09' W 119°47'712.8
2017-Nov-07 04:55N 34°11' W 119°55'612.8
2017-Nov-07 04:26N 34°13' W 120°02'612.7
2017-Nov-07 03:58N 34°14' W 120°09'712.9
2017-Nov-07 03:25N 34°16' W 120°17'513.0
2017-Nov-07 03:00N 34°18' W 120°24'612.7
2017-Nov-07 02:30N 34°19' W 120°31'612.6
2017-Nov-07 02:00N 34°18' W 120°39'713.1
2017-Nov-07 01:29N 34°17' W 120°47'613.1
2017-Nov-07 01:00N 34°15' W 120°54'612.9
2017-Nov-07 00:30N 34°13' W 121°02'713.2
2017-Nov-06 23:59N 34°10' W 121°09'713.5
2017-Nov-06 23:30N 34°08' W 121°17'713.5
2017-Nov-06 23:00N 34°06' W 121°24'713.4
2017-Nov-06 22:28N 34°04' W 121°33'613.4
2017-Nov-06 22:00N 34°02' W 121°40'713.3
2017-Nov-06 21:29N 33°59' W 121°47'613.3
2017-Nov-06 21:00N 33°57' W 121°55'713.2
2017-Nov-06 20:30N 33°55' W 122°02'  

Dump ship's entire track history